sensor_id;sensor_type;location;lat;lon;timestamp;P1;durP1;ratioP1;P2;durP2;ratioP2
72406;SDS011;60396;47.550;18.828;2023-10-19T00:00:57;15.13;;;5.63;;
72406;SDS011;60396;47.550;18.828;2023-10-19T00:03:25;14.50;;;5.60;;
72406;SDS011;60396;47.550;18.828;2023-10-19T00:05:55;9.82;;;4.72;;
72406;SDS011;60396;47.550;18.828;2023-10-19T00:08:23;16.95;;;5.30;;
72406;SDS011;60396;47.550;18.828;2023-10-19T00:10:52;12.32;;;5.57;;
72406;SDS011;60396;47.550;18.828;2023-10-19T00:13:37;14.57;;;5.03;;
72406;SDS011;60396;47.550;18.828;2023-10-19T00:16:06;14.10;;;5.70;;
72406;SDS011;60396;47.550;18.828;2023-10-19T00:18:45;14.43;;;5.57;;
72406;SDS011;60396;47.550;18.828;2023-10-19T00:21:16;14.07;;;5.47;;
72406;SDS011;60396;47.550;18.828;2023-10-19T00:23:57;12.65;;;6.57;;
72406;SDS011;60396;47.550;18.828;2023-10-19T00:26:26;14.97;;;6.17;;
72406;SDS011;60396;47.550;18.828;2023-10-19T00:28:57;15.90;;;6.15;;
72406;SDS011;60396;47.550;18.828;2023-10-19T00:31:25;14.02;;;6.20;;
72406;SDS011;60396;47.550;18.828;2023-10-19T00:33:56;14.70;;;6.03;;
72406;SDS011;60396;47.550;18.828;2023-10-19T00:36:25;14.27;;;6.80;;
72406;SDS011;60396;47.550;18.828;2023-10-19T00:38:53;15.63;;;6.50;;
72406;SDS011;60396;47.550;18.828;2023-10-19T00:41:24;20.70;;;7.45;;
72406;SDS011;60396;47.550;18.828;2023-10-19T00:43:59;16.02;;;7.07;;
72406;SDS011;60396;47.550;18.828;2023-10-19T00:46:39;15.40;;;6.85;;
72406;SDS011;60396;47.550;18.828;2023-10-19T00:49:11;15.45;;;7.55;;
72406;SDS011;60396;47.550;18.828;2023-10-19T00:51:51;14.73;;;7.60;;
72406;SDS011;60396;47.550;18.828;2023-10-19T00:57:00;14.50;;;8.40;;
72406;SDS011;60396;47.550;18.828;2023-10-19T00:59:36;16.23;;;8.63;;
72406;SDS011;60396;47.550;18.828;2023-10-19T01:02:21;18.77;;;9.73;;
72406;SDS011;60396;47.550;18.828;2023-10-19T01:04:53;21.07;;;9.90;;
72406;SDS011;60396;47.550;18.828;2023-10-19T01:07:29;19.73;;;10.15;;
72406;SDS011;60396;47.550;18.828;2023-10-19T01:09:58;20.83;;;10.68;;
72406;SDS011;60396;47.550;18.828;2023-10-19T01:12:27;20.70;;;10.48;;
72406;SDS011;60396;47.550;18.828;2023-10-19T01:15:11;22.50;;;10.50;;
72406;SDS011;60396;47.550;18.828;2023-10-19T01:18:04;22.20;;;12.03;;
72406;SDS011;60396;47.550;18.828;2023-10-19T01:20:35;22.10;;;12.18;;
72406;SDS011;60396;47.550;18.828;2023-10-19T01:23:18;19.70;;;11.75;;
72406;SDS011;60396;47.550;18.828;2023-10-19T01:25:59;22.15;;;12.37;;
72406;SDS011;60396;47.550;18.828;2023-10-19T01:28:37;23.23;;;12.85;;
72406;SDS011;60396;47.550;18.828;2023-10-19T01:31:09;21.60;;;13.17;;
72406;SDS011;60396;47.550;18.828;2023-10-19T01:33:44;22.62;;;14.15;;
72406;SDS011;60396;47.550;18.828;2023-10-19T01:36:13;24.65;;;15.32;;
72406;SDS011;60396;47.550;18.828;2023-10-19T01:38:52;28.87;;;15.38;;
72406;SDS011;60396;47.550;18.828;2023-10-19T01:41:23;30.33;;;15.25;;
72406;SDS011;60396;47.550;18.828;2023-10-19T01:43:52;31.60;;;17.60;;
72406;SDS011;60396;47.550;18.828;2023-10-19T01:46:23;32.15;;;17.33;;
72406;SDS011;60396;47.550;18.828;2023-10-19T01:48:52;31.40;;;18.00;;
72406;SDS011;60396;47.550;18.828;2023-10-19T01:51:23;31.48;;;17.92;;
72406;SDS011;60396;47.550;18.828;2023-10-19T01:53:54;33.95;;;17.80;;
72406;SDS011;60396;47.550;18.828;2023-10-19T01:56:23;30.73;;;18.47;;
72406;SDS011;60396;47.550;18.828;2023-10-19T01:58:52;29.73;;;18.37;;
72406;SDS011;60396;47.550;18.828;2023-10-19T02:01:21;30.77;;;19.27;;
72406;SDS011;60396;47.550;18.828;2023-10-19T02:04:00;32.65;;;18.73;;
72406;SDS011;60396;47.550;18.828;2023-10-19T02:06:30;33.50;;;19.37;;
72406;SDS011;60396;47.550;18.828;2023-10-19T02:09:05;38.87;;;20.40;;
72406;SDS011;60396;47.550;18.828;2023-10-19T02:11:59;33.97;;;19.42;;
72406;SDS011;60396;47.550;18.828;2023-10-19T02:14:29;30.60;;;20.17;;
72406;SDS011;60396;47.550;18.828;2023-10-19T02:16:57;37.97;;;20.90;;
72406;SDS011;60396;47.550;18.828;2023-10-19T02:19:31;35.20;;;21.00;;
72406;SDS011;60396;47.550;18.828;2023-10-19T02:22:03;31.00;;;19.70;;
72406;SDS011;60396;47.550;18.828;2023-10-19T02:24:34;33.92;;;19.42;;
72406;SDS011;60396;47.550;18.828;2023-10-19T02:27:02;33.92;;;20.05;;
72406;SDS011;60396;47.550;18.828;2023-10-19T02:29:31;33.85;;;20.73;;
72406;SDS011;60396;47.550;18.828;2023-10-19T02:31:59;33.88;;;20.42;;
72406;SDS011;60396;47.550;18.828;2023-10-19T02:34:33;34.90;;;20.57;;
72406;SDS011;60396;47.550;18.828;2023-10-19T02:37:02;35.33;;;21.20;;
72406;SDS011;60396;47.550;18.828;2023-10-19T02:39:30;34.97;;;21.62;;
72406;SDS011;60396;47.550;18.828;2023-10-19T02:41:58;35.75;;;21.23;;
72406;SDS011;60396;47.550;18.828;2023-10-19T02:44:29;32.47;;;20.52;;
72406;SDS011;60396;47.550;18.828;2023-10-19T02:46:58;36.70;;;21.30;;
72406;SDS011;60396;47.550;18.828;2023-10-19T02:49:29;32.45;;;21.83;;
72406;SDS011;60396;47.550;18.828;2023-10-19T02:51:58;32.78;;;20.42;;
72406;SDS011;60396;47.550;18.828;2023-10-19T02:54:34;40.63;;;26.35;;
72406;SDS011;60396;47.550;18.828;2023-10-19T02:57:03;34.08;;;22.00;;
72406;SDS011;60396;47.550;18.828;2023-10-19T02:59:35;32.80;;;20.80;;
72406;SDS011;60396;47.550;18.828;2023-10-19T03:02:03;35.35;;;21.45;;
72406;SDS011;60396;47.550;18.828;2023-10-19T03:04:44;34.75;;;22.23;;
72406;SDS011;60396;47.550;18.828;2023-10-19T03:07:13;33.03;;;20.55;;
72406;SDS011;60396;47.550;18.828;2023-10-19T03:09:43;31.70;;;20.52;;
72406;SDS011;60396;47.550;18.828;2023-10-19T03:12:20;33.87;;;20.53;;
72406;SDS011;60396;47.550;18.828;2023-10-19T03:14:52;35.17;;;21.37;;
72406;SDS011;60396;47.550;18.828;2023-10-19T03:17:21;31.10;;;20.77;;
72406;SDS011;60396;47.550;18.828;2023-10-19T03:19:48;34.92;;;21.77;;
72406;SDS011;60396;47.550;18.828;2023-10-19T03:22:16;29.40;;;19.48;;
72406;SDS011;60396;47.550;18.828;2023-10-19T03:24:44;30.37;;;19.37;;
72406;SDS011;60396;47.550;18.828;2023-10-19T03:27:13;32.70;;;19.58;;
72406;SDS011;60396;47.550;18.828;2023-10-19T03:29:50;31.77;;;19.40;;
72406;SDS011;60396;47.550;18.828;2023-10-19T03:32:28;31.10;;;19.50;;
72406;SDS011;60396;47.550;18.828;2023-10-19T03:35:00;31.10;;;19.40;;
72406;SDS011;60396;47.550;18.828;2023-10-19T03:37:29;34.07;;;20.77;;
72406;SDS011;60396;47.550;18.828;2023-10-19T03:39:58;36.83;;;21.50;;
72406;SDS011;60396;47.550;18.828;2023-10-19T03:42:26;37.30;;;22.00;;
72406;SDS011;60396;47.550;18.828;2023-10-19T03:44:59;39.10;;;24.63;;
72406;SDS011;60396;47.550;18.828;2023-10-19T03:47:35;37.55;;;21.27;;
72406;SDS011;60396;47.550;18.828;2023-10-19T03:50:03;34.73;;;21.33;;
72406;SDS011;60396;47.550;18.828;2023-10-19T03:52:35;37.75;;;21.35;;
72406;SDS011;60396;47.550;18.828;2023-10-19T03:55:06;32.53;;;20.33;;
72406;SDS011;60396;47.550;18.828;2023-10-19T03:57:51;33.97;;;20.52;;
72406;SDS011;60396;47.550;18.828;2023-10-19T04:00:21;36.53;;;20.77;;
72406;SDS011;60396;47.550;18.828;2023-10-19T04:02:54;36.20;;;19.83;;
72406;SDS011;60396;47.550;18.828;2023-10-19T04:05:22;30.80;;;18.92;;
72406;SDS011;60396;47.550;18.828;2023-10-19T04:07:50;34.15;;;19.45;;
72406;SDS011;60396;47.550;18.828;2023-10-19T04:10:29;34.67;;;20.85;;
72406;SDS011;60396;47.550;18.828;2023-10-19T04:12:57;36.92;;;20.02;;
72406;SDS011;60396;47.550;18.828;2023-10-19T04:15:28;35.27;;;19.87;;
72406;SDS011;60396;47.550;18.828;2023-10-19T04:18:00;34.58;;;20.62;;
72406;SDS011;60396;47.550;18.828;2023-10-19T04:20:28;33.65;;;19.80;;
72406;SDS011;60396;47.550;18.828;2023-10-19T04:22:57;32.22;;;19.35;;
72406;SDS011;60396;47.550;18.828;2023-10-19T04:25:26;35.33;;;18.83;;
72406;SDS011;60396;47.550;18.828;2023-10-19T04:27:55;34.60;;;18.50;;
72406;SDS011;60396;47.550;18.828;2023-10-19T04:30:25;32.45;;;18.60;;
72406;SDS011;60396;47.550;18.828;2023-10-19T04:32:53;33.97;;;17.67;;
72406;SDS011;60396;47.550;18.828;2023-10-19T04:35:25;31.48;;;17.85;;
72406;SDS011;60396;47.550;18.828;2023-10-19T04:37:57;29.20;;;15.20;;
72406;SDS011;60396;47.550;18.828;2023-10-19T04:40:27;30.33;;;16.80;;
72406;SDS011;60396;47.550;18.828;2023-10-19T04:42:55;31.35;;;16.70;;
72406;SDS011;60396;47.550;18.828;2023-10-19T04:45:23;30.70;;;17.12;;
72406;SDS011;60396;47.550;18.828;2023-10-19T04:47:51;28.60;;;15.98;;
72406;SDS011;60396;47.550;18.828;2023-10-19T04:50:20;29.73;;;16.12;;
72406;SDS011;60396;47.550;18.828;2023-10-19T04:52:48;26.67;;;14.73;;
72406;SDS011;60396;47.550;18.828;2023-10-19T04:55:16;28.38;;;15.13;;
72406;SDS011;60396;47.550;18.828;2023-10-19T04:57:44;28.85;;;14.23;;
72406;SDS011;60396;47.550;18.828;2023-10-19T05:00:12;23.98;;;14.50;;
72406;SDS011;60396;47.550;18.828;2023-10-19T05:02:42;24.37;;;14.02;;
72406;SDS011;60396;47.550;18.828;2023-10-19T05:05:10;24.63;;;14.33;;
72406;SDS011;60396;47.550;18.828;2023-10-19T05:07:38;23.58;;;13.05;;
72406;SDS011;60396;47.550;18.828;2023-10-19T05:10:06;25.25;;;13.07;;
72406;SDS011;60396;47.550;18.828;2023-10-19T05:12:35;21.25;;;12.80;;
72406;SDS011;60396;47.550;18.828;2023-10-19T05:15:03;24.25;;;13.75;;
72406;SDS011;60396;47.550;18.828;2023-10-19T05:17:33;23.00;;;12.80;;
72406;SDS011;60396;47.550;18.828;2023-10-19T05:20:01;20.85;;;12.65;;
72406;SDS011;60396;47.550;18.828;2023-10-19T05:22:34;24.35;;;12.85;;
72406;SDS011;60396;47.550;18.828;2023-10-19T05:25:03;21.25;;;12.50;;
72406;SDS011;60396;47.550;18.828;2023-10-19T05:27:31;23.23;;;12.25;;
72406;SDS011;60396;47.550;18.828;2023-10-19T05:29:59;22.90;;;12.33;;
72406;SDS011;60396;47.550;18.828;2023-10-19T05:32:28;22.33;;;12.60;;
72406;SDS011;60396;47.550;18.828;2023-10-19T05:34:57;21.08;;;11.52;;
72406;SDS011;60396;47.550;18.828;2023-10-19T05:37:27;22.15;;;12.35;;
72406;SDS011;60396;47.550;18.828;2023-10-19T05:39:56;19.00;;;11.30;;
72406;SDS011;60396;47.550;18.828;2023-10-19T05:42:24;22.37;;;11.57;;
72406;SDS011;60396;47.550;18.828;2023-10-19T05:44:53;22.67;;;12.55;;
72406;SDS011;60396;47.550;18.828;2023-10-19T05:47:20;22.65;;;12.18;;
72406;SDS011;60396;47.550;18.828;2023-10-19T05:49:48;21.42;;;11.55;;
72406;SDS011;60396;47.550;18.828;2023-10-19T05:52:16;22.70;;;11.25;;
72406;SDS011;60396;47.550;18.828;2023-10-19T05:54:44;20.60;;;11.13;;
72406;SDS011;60396;47.550;18.828;2023-10-19T05:57:11;24.45;;;12.68;;
72406;SDS011;60396;47.550;18.828;2023-10-19T05:59:40;21.75;;;11.20;;
72406;SDS011;60396;47.550;18.828;2023-10-19T06:02:08;24.17;;;11.88;;
72406;SDS011;60396;47.550;18.828;2023-10-19T06:04:36;20.62;;;11.77;;
72406;SDS011;60396;47.550;18.828;2023-10-19T06:07:05;22.63;;;12.80;;
72406;SDS011;60396;47.550;18.828;2023-10-19T06:09:33;24.10;;;12.37;;
72406;SDS011;60396;47.550;18.828;2023-10-19T06:12:01;21.85;;;11.27;;
72406;SDS011;60396;47.550;18.828;2023-10-19T06:14:29;24.45;;;11.30;;
72406;SDS011;60396;47.550;18.828;2023-10-19T06:16:57;21.90;;;10.75;;
72406;SDS011;60396;47.550;18.828;2023-10-19T06:19:26;21.67;;;11.80;;
72406;SDS011;60396;47.550;18.828;2023-10-19T06:21:53;21.27;;;11.95;;
72406;SDS011;60396;47.550;18.828;2023-10-19T06:24:21;25.50;;;11.75;;
72406;SDS011;60396;47.550;18.828;2023-10-19T06:26:49;22.25;;;12.00;;
72406;SDS011;60396;47.550;18.828;2023-10-19T06:29:16;22.67;;;11.45;;
72406;SDS011;60396;47.550;18.828;2023-10-19T06:31:44;19.70;;;10.60;;
72406;SDS011;60396;47.550;18.828;2023-10-19T06:34:12;20.85;;;12.02;;
72406;SDS011;60396;47.550;18.828;2023-10-19T06:36:40;22.02;;;11.50;;
72406;SDS011;60396;47.550;18.828;2023-10-19T06:39:07;22.02;;;11.88;;
72406;SDS011;60396;47.550;18.828;2023-10-19T06:41:36;20.55;;;11.15;;
72406;SDS011;60396;47.550;18.828;2023-10-19T06:44:03;24.10;;;11.73;;
72406;SDS011;60396;47.550;18.828;2023-10-19T06:46:32;22.05;;;11.70;;
72406;SDS011;60396;47.550;18.828;2023-10-19T06:49:00;21.10;;;11.57;;
72406;SDS011;60396;47.550;18.828;2023-10-19T06:51:28;21.15;;;11.27;;
72406;SDS011;60396;47.550;18.828;2023-10-19T06:53:56;21.20;;;10.35;;
72406;SDS011;60396;47.550;18.828;2023-10-19T06:56:25;20.03;;;11.07;;
72406;SDS011;60396;47.550;18.828;2023-10-19T06:58:53;20.27;;;11.07;;
72406;SDS011;60396;47.550;18.828;2023-10-19T07:01:22;20.23;;;10.95;;
72406;SDS011;60396;47.550;18.828;2023-10-19T07:03:54;21.00;;;10.13;;
72406;SDS011;60396;47.550;18.828;2023-10-19T07:06:24;23.08;;;12.02;;
72406;SDS011;60396;47.550;18.828;2023-10-19T07:08:52;17.73;;;9.60;;
72406;SDS011;60396;47.550;18.828;2023-10-19T07:11:20;20.37;;;8.98;;
72406;SDS011;60396;47.550;18.828;2023-10-19T07:13:48;17.37;;;8.68;;
72406;SDS011;60396;47.550;18.828;2023-10-19T07:16:16;17.67;;;8.85;;
72406;SDS011;60396;47.550;18.828;2023-10-19T07:18:45;18.40;;;9.82;;
72406;SDS011;60396;47.550;18.828;2023-10-19T07:21:14;18.67;;;9.97;;
72406;SDS011;60396;47.550;18.828;2023-10-19T07:23:42;19.40;;;10.38;;
72406;SDS011;60396;47.550;18.828;2023-10-19T07:26:11;20.83;;;10.52;;
72406;SDS011;60396;47.550;18.828;2023-10-19T07:28:41;17.65;;;9.77;;
72406;SDS011;60396;47.550;18.828;2023-10-19T07:31:10;19.83;;;11.27;;
72406;SDS011;60396;47.550;18.828;2023-10-19T07:33:43;19.30;;;10.63;;
72406;SDS011;60396;47.550;18.828;2023-10-19T07:36:13;21.60;;;11.50;;
72406;SDS011;60396;47.550;18.828;2023-10-19T07:38:42;18.70;;;10.88;;
72406;SDS011;60396;47.550;18.828;2023-10-19T07:41:10;21.23;;;11.43;;
72406;SDS011;60396;47.550;18.828;2023-10-19T07:43:37;22.77;;;11.48;;
72406;SDS011;60396;47.550;18.828;2023-10-19T07:46:05;22.47;;;11.57;;
72406;SDS011;60396;47.550;18.828;2023-10-19T07:48:33;20.73;;;11.65;;
72406;SDS011;60396;47.550;18.828;2023-10-19T07:51:00;18.58;;;11.75;;
72406;SDS011;60396;47.550;18.828;2023-10-19T07:53:28;23.98;;;12.18;;
72406;SDS011;60396;47.550;18.828;2023-10-19T07:55:57;25.30;;;11.40;;
72406;SDS011;60396;47.550;18.828;2023-10-19T07:58:25;20.40;;;11.43;;
72406;SDS011;60396;47.550;18.828;2023-10-19T08:00:54;22.65;;;12.73;;
72406;SDS011;60396;47.550;18.828;2023-10-19T08:03:25;21.90;;;11.82;;
72406;SDS011;60396;47.550;18.828;2023-10-19T08:05:53;24.40;;;12.75;;
72406;SDS011;60396;47.550;18.828;2023-10-19T08:08:21;21.15;;;12.23;;
72406;SDS011;60396;47.550;18.828;2023-10-19T08:10:52;22.43;;;11.27;;
72406;SDS011;60396;47.550;18.828;2023-10-19T08:13:38;22.60;;;12.23;;
72406;SDS011;60396;47.550;18.828;2023-10-19T08:16:07;21.65;;;12.05;;
72406;SDS011;60396;47.550;18.828;2023-10-19T08:18:35;20.83;;;12.07;;
72406;SDS011;60396;47.550;18.828;2023-10-19T08:21:03;21.15;;;12.00;;
72406;SDS011;60396;47.550;18.828;2023-10-19T08:23:31;21.47;;;12.33;;
72406;SDS011;60396;47.550;18.828;2023-10-19T08:25:58;22.45;;;12.25;;
72406;SDS011;60396;47.550;18.828;2023-10-19T08:28:27;20.30;;;11.65;;
72406;SDS011;60396;47.550;18.828;2023-10-19T08:30:55;21.48;;;11.77;;
72406;SDS011;60396;47.550;18.828;2023-10-19T08:33:29;23.83;;;12.60;;
72406;SDS011;60396;47.550;18.828;2023-10-19T08:35:57;20.97;;;11.03;;
72406;SDS011;60396;47.550;18.828;2023-10-19T08:38:27;19.65;;;11.80;;
72406;SDS011;60396;47.550;18.828;2023-10-19T08:40:55;25.55;;;12.55;;
72406;SDS011;60396;47.550;18.828;2023-10-19T08:43:23;19.62;;;12.30;;
72406;SDS011;60396;47.550;18.828;2023-10-19T08:45:52;20.80;;;13.20;;
72406;SDS011;60396;47.550;18.828;2023-10-19T08:48:21;21.63;;;12.43;;
72406;SDS011;60396;47.550;18.828;2023-10-19T08:50:50;23.45;;;13.75;;
72406;SDS011;60396;47.550;18.828;2023-10-19T08:53:18;21.77;;;13.55;;
72406;SDS011;60396;47.550;18.828;2023-10-19T08:55:48;21.02;;;12.60;;
72406;SDS011;60396;47.550;18.828;2023-10-19T08:58:19;21.80;;;12.15;;
72406;SDS011;60396;47.550;18.828;2023-10-19T09:00:48;25.83;;;13.57;;
72406;SDS011;60396;47.550;18.828;2023-10-19T09:03:19;21.08;;;12.95;;
72406;SDS011;60396;47.550;18.828;2023-10-19T09:05:49;23.12;;;13.82;;
72406;SDS011;60396;47.550;18.828;2023-10-19T09:08:18;22.05;;;13.27;;
72406;SDS011;60396;47.550;18.828;2023-10-19T09:10:48;22.65;;;12.98;;
72406;SDS011;60396;47.550;18.828;2023-10-19T09:13:19;23.57;;;13.20;;
72406;SDS011;60396;47.550;18.828;2023-10-19T09:15:47;23.23;;;12.85;;
72406;SDS011;60396;47.550;18.828;2023-10-19T09:18:24;27.25;;;12.98;;
72406;SDS011;60396;47.550;18.828;2023-10-19T09:20:56;21.23;;;12.00;;
72406;SDS011;60396;47.550;18.828;2023-10-19T09:23:35;22.35;;;13.02;;
72406;SDS011;60396;47.550;18.828;2023-10-19T09:26:04;20.83;;;12.70;;
72406;SDS011;60396;47.550;18.828;2023-10-19T09:28:36;20.55;;;11.48;;
72406;SDS011;60396;47.550;18.828;2023-10-19T09:31:06;20.77;;;12.40;;
72406;SDS011;60396;47.550;18.828;2023-10-19T09:33:38;22.92;;;12.80;;
72406;SDS011;60396;47.550;18.828;2023-10-19T09:36:08;20.45;;;12.13;;
72406;SDS011;60396;47.550;18.828;2023-10-19T09:38:43;25.00;;;12.93;;
72406;SDS011;60396;47.550;18.828;2023-10-19T09:41:21;21.83;;;12.98;;
72406;SDS011;60396;47.550;18.828;2023-10-19T09:43:49;23.67;;;13.32;;
72406;SDS011;60396;47.550;18.828;2023-10-19T09:46:21;19.05;;;12.93;;
72406;SDS011;60396;47.550;18.828;2023-10-19T09:48:50;22.75;;;12.57;;
72406;SDS011;60396;47.550;18.828;2023-10-19T09:51:19;21.37;;;13.03;;
72406;SDS011;60396;47.550;18.828;2023-10-19T09:53:49;22.33;;;12.35;;
72406;SDS011;60396;47.550;18.828;2023-10-19T09:56:24;20.77;;;12.73;;
72406;SDS011;60396;47.550;18.828;2023-10-19T09:58:57;21.65;;;12.90;;
72406;SDS011;60396;47.550;18.828;2023-10-19T10:01:58;20.12;;;12.65;;
72406;SDS011;60396;47.550;18.828;2023-10-19T10:04:33;22.97;;;13.43;;
72406;SDS011;60396;47.550;18.828;2023-10-19T10:07:05;21.65;;;12.68;;
72406;SDS011;60396;47.550;18.828;2023-10-19T10:09:40;22.55;;;13.32;;
72406;SDS011;60396;47.550;18.828;2023-10-19T10:12:19;22.62;;;13.95;;
72406;SDS011;60396;47.550;18.828;2023-10-19T10:14:59;24.58;;;14.63;;
72406;SDS011;60396;47.550;18.828;2023-10-19T10:17:27;26.00;;;14.67;;
72406;SDS011;60396;47.550;18.828;2023-10-19T10:22:45;24.37;;;13.88;;
72406;SDS011;60396;47.550;18.828;2023-10-19T10:25:26;22.85;;;13.65;;
72406;SDS011;60396;47.550;18.828;2023-10-19T10:27:55;21.87;;;13.38;;
72406;SDS011;60396;47.550;18.828;2023-10-19T10:30:23;22.80;;;13.20;;
72406;SDS011;60396;47.550;18.828;2023-10-19T10:32:52;19.48;;;13.18;;
72406;SDS011;60396;47.550;18.828;2023-10-19T10:38:09;18.65;;;11.90;;
72406;SDS011;60396;47.550;18.828;2023-10-19T10:40:43;19.33;;;11.40;;
72406;SDS011;60396;47.550;18.828;2023-10-19T10:43:11;19.57;;;12.37;;
72406;SDS011;60396;47.550;18.828;2023-10-19T10:45:39;20.40;;;12.88;;
72406;SDS011;60396;47.550;18.828;2023-10-19T10:48:11;20.33;;;12.23;;
72406;SDS011;60396;47.550;18.828;2023-10-19T10:50:44;21.23;;;13.05;;
72406;SDS011;60396;47.550;18.828;2023-10-19T10:53:13;18.67;;;11.80;;
72406;SDS011;60396;47.550;18.828;2023-10-19T10:55:45;20.23;;;12.43;;
72406;SDS011;60396;47.550;18.828;2023-10-19T10:58:17;21.08;;;12.13;;
72406;SDS011;60396;47.550;18.828;2023-10-19T11:00:46;21.80;;;12.60;;
72406;SDS011;60396;47.550;18.828;2023-10-19T11:03:22;20.77;;;12.88;;
72406;SDS011;60396;47.550;18.828;2023-10-19T11:05:52;20.92;;;12.65;;
72406;SDS011;60396;47.550;18.828;2023-10-19T11:08:19;20.23;;;11.90;;
72406;SDS011;60396;47.550;18.828;2023-10-19T11:10:52;20.52;;;11.63;;
72406;SDS011;60396;47.550;18.828;2023-10-19T11:13:23;20.55;;;11.43;;
72406;SDS011;60396;47.550;18.828;2023-10-19T11:15:56;18.45;;;11.88;;
72406;SDS011;60396;47.550;18.828;2023-10-19T11:18:30;18.80;;;10.10;;
72406;SDS011;60396;47.550;18.828;2023-10-19T11:21:08;17.47;;;10.60;;
72406;SDS011;60396;47.550;18.828;2023-10-19T11:23:42;21.12;;;10.15;;
72406;SDS011;60396;47.550;18.828;2023-10-19T11:26:12;16.67;;;9.20;;
72406;SDS011;60396;47.550;18.828;2023-10-19T11:28:41;19.67;;;10.07;;
72406;SDS011;60396;47.550;18.828;2023-10-19T11:31:16;15.90;;;9.27;;
72406;SDS011;60396;47.550;18.828;2023-10-19T11:33:53;17.87;;;9.97;;
72406;SDS011;60396;47.550;18.828;2023-10-19T11:36:23;18.48;;;9.95;;
72406;SDS011;60396;47.550;18.828;2023-10-19T11:38:52;16.95;;;9.80;;
72406;SDS011;60396;47.550;18.828;2023-10-19T11:41:20;15.77;;;8.45;;
72406;SDS011;60396;47.550;18.828;2023-10-19T11:43:48;13.73;;;8.38;;
72406;SDS011;60396;47.550;18.828;2023-10-19T11:46:17;16.80;;;8.97;;
72406;SDS011;60396;47.550;18.828;2023-10-19T11:48:45;16.42;;;8.98;;
72406;SDS011;60396;47.550;18.828;2023-10-19T11:51:14;16.95;;;8.85;;
72406;SDS011;60396;47.550;18.828;2023-10-19T11:53:42;14.65;;;9.15;;
72406;SDS011;60396;47.550;18.828;2023-10-19T11:56:11;15.65;;;8.38;;
72406;SDS011;60396;47.550;18.828;2023-10-19T11:58:41;19.87;;;8.80;;
72406;SDS011;60396;47.550;18.828;2023-10-19T12:01:11;13.75;;;8.20;;
72406;SDS011;60396;47.550;18.828;2023-10-19T12:03:40;16.17;;;9.30;;
72406;SDS011;60396;47.550;18.828;2023-10-19T12:06:09;16.33;;;9.05;;
72406;SDS011;60396;47.550;18.828;2023-10-19T12:08:38;16.30;;;8.48;;
72406;SDS011;60396;47.550;18.828;2023-10-19T12:11:07;15.90;;;8.63;;
72406;SDS011;60396;47.550;18.828;2023-10-19T12:13:47;14.75;;;8.85;;
72406;SDS011;60396;47.550;18.828;2023-10-19T12:16:16;17.25;;;8.25;;
72406;SDS011;60396;47.550;18.828;2023-10-19T12:18:44;15.40;;;9.55;;
72406;SDS011;60396;47.550;18.828;2023-10-19T12:21:13;16.05;;;8.43;;
72406;SDS011;60396;47.550;18.828;2023-10-19T12:23:42;17.10;;;8.70;;
72406;SDS011;60396;47.550;18.828;2023-10-19T12:26:11;17.98;;;9.90;;
72406;SDS011;60396;47.550;18.828;2023-10-19T12:28:39;19.17;;;9.35;;
72406;SDS011;60396;47.550;18.828;2023-10-19T12:31:08;17.10;;;8.95;;
72406;SDS011;60396;47.550;18.828;2023-10-19T12:33:37;15.77;;;9.32;;
72406;SDS011;60396;47.550;18.828;2023-10-19T12:36:06;14.70;;;8.10;;
72406;SDS011;60396;47.550;18.828;2023-10-19T12:38:53;15.50;;;8.73;;
72406;SDS011;60396;47.550;18.828;2023-10-19T12:41:21;15.77;;;9.02;;
72406;SDS011;60396;47.550;18.828;2023-10-19T12:43:50;16.00;;;8.82;;
72406;SDS011;60396;47.550;18.828;2023-10-19T12:46:25;14.93;;;9.45;;
72406;SDS011;60396;47.550;18.828;2023-10-19T12:48:53;18.50;;;8.97;;
72406;SDS011;60396;47.550;18.828;2023-10-19T12:51:25;17.23;;;9.35;;
72406;SDS011;60396;47.550;18.828;2023-10-19T12:54:11;16.42;;;8.52;;
72406;SDS011;60396;47.550;18.828;2023-10-19T12:56:41;19.08;;;9.23;;
72406;SDS011;60396;47.550;18.828;2023-10-19T12:59:09;20.30;;;9.40;;
72406;SDS011;60396;47.550;18.828;2023-10-19T13:01:36;19.73;;;9.43;;
72406;SDS011;60396;47.550;18.828;2023-10-19T13:04:05;18.75;;;9.68;;
72406;SDS011;60396;47.550;18.828;2023-10-19T13:06:44;16.42;;;9.02;;
72406;SDS011;60396;47.550;18.828;2023-10-19T13:09:15;17.77;;;10.43;;
72406;SDS011;60396;47.550;18.828;2023-10-19T13:11:49;17.98;;;9.30;;
72406;SDS011;60396;47.550;18.828;2023-10-19T13:14:20;16.27;;;9.30;;
72406;SDS011;60396;47.550;18.828;2023-10-19T13:16:48;16.00;;;8.63;;
72406;SDS011;60396;47.550;18.828;2023-10-19T13:19:18;16.52;;;9.35;;
72406;SDS011;60396;47.550;18.828;2023-10-19T13:21:56;16.15;;;8.27;;
72406;SDS011;60396;47.550;18.828;2023-10-19T13:24:28;15.52;;;8.50;;
72406;SDS011;60396;47.550;18.828;2023-10-19T13:26:59;17.53;;;9.17;;
72406;SDS011;60396;47.550;18.828;2023-10-19T13:29:26;16.30;;;8.60;;
72406;SDS011;60396;47.550;18.828;2023-10-19T13:31:54;17.73;;;9.05;;
72406;SDS011;60396;47.550;18.828;2023-10-19T13:34:23;21.30;;;8.60;;
72406;SDS011;60396;47.550;18.828;2023-10-19T13:36:51;16.40;;;9.02;;
72406;SDS011;60396;47.550;18.828;2023-10-19T13:39:19;16.17;;;8.80;;
72406;SDS011;60396;47.550;18.828;2023-10-19T13:41:47;17.48;;;8.30;;
72406;SDS011;60396;47.550;18.828;2023-10-19T13:44:15;15.73;;;8.05;;
72406;SDS011;60396;47.550;18.828;2023-10-19T13:46:46;20.85;;;8.75;;
72406;SDS011;60396;47.550;18.828;2023-10-19T13:49:14;20.33;;;8.50;;
72406;SDS011;60396;47.550;18.828;2023-10-19T13:51:46;15.33;;;7.27;;
72406;SDS011;60396;47.550;18.828;2023-10-19T13:54:13;19.77;;;7.82;;
72406;SDS011;60396;47.550;18.828;2023-10-19T13:56:41;17.52;;;8.55;;
72406;SDS011;60396;47.550;18.828;2023-10-19T13:59:09;19.50;;;7.87;;
72406;SDS011;60396;47.550;18.828;2023-10-19T14:01:38;16.08;;;7.50;;
72406;SDS011;60396;47.550;18.828;2023-10-19T14:04:06;18.97;;;9.73;;
72406;SDS011;60396;47.550;18.828;2023-10-19T14:06:33;13.35;;;7.75;;
72406;SDS011;60396;47.550;18.828;2023-10-19T14:09:01;14.30;;;8.30;;
72406;SDS011;60396;47.550;18.828;2023-10-19T14:11:29;15.05;;;7.35;;
72406;SDS011;60396;47.550;18.828;2023-10-19T14:13:57;17.02;;;8.13;;
72406;SDS011;60396;47.550;18.828;2023-10-19T14:16:24;13.73;;;7.67;;
72406;SDS011;60396;47.550;18.828;2023-10-19T14:18:54;17.45;;;7.47;;
72406;SDS011;60396;47.550;18.828;2023-10-19T14:21:23;13.38;;;6.95;;
72406;SDS011;60396;47.550;18.828;2023-10-19T14:23:54;14.60;;;7.00;;
72406;SDS011;60396;47.550;18.828;2023-10-19T14:26:22;12.32;;;6.93;;
72406;SDS011;60396;47.550;18.828;2023-10-19T14:28:49;14.87;;;7.37;;
72406;SDS011;60396;47.550;18.828;2023-10-19T14:31:18;12.63;;;7.05;;
72406;SDS011;60396;47.550;18.828;2023-10-19T14:33:45;15.57;;;7.30;;
72406;SDS011;60396;47.550;18.828;2023-10-19T14:36:14;15.32;;;7.28;;
72406;SDS011;60396;47.550;18.828;2023-10-19T14:38:41;14.40;;;7.05;;
72406;SDS011;60396;47.550;18.828;2023-10-19T14:41:12;12.37;;;6.53;;